Time;durP1;ratioP1;P1;durP2;ratioP2;P2;SDS_P1;SDS_P2;PMS_P1;PMS_P2;Temp;Humidity;BMP_temperature;BMP_pressure;BME280_temperature;BME280_humidity;BME280_pressure;Samples;Min_cycle;Max_cycle;Signal;HPM_P1;HPM_P2
2023/09/30 00:00:56;;;;;;;7.30;3.80;;;22.40;99.90;;;;;;1926049;74;21046;-83
2023/09/30 00:03:47;;;;;;;6.17;3.83;;;22.40;99.90;;;;;;1926232;74;21090;-83
2023/09/30 00:06:39;;;;;;;6.78;4.20;;;22.50;99.90;;;;;;1926208;74;21602;-83
2023/09/30 00:09:30;;;;;;;6.45;3.98;;;22.60;99.90;;;;;;1926048;74;21184;-83
2023/09/30 00:12:21;;;;;;;8.80;4.65;;;22.70;99.90;;;;;;1926103;74;21589;-83
2023/09/30 00:15:13;;;;;;;8.68;4.58;;;22.70;99.90;;;;;;1926308;74;21102;-85
2023/09/30 00:18:06;;;;;;;7.55;4.45;;;22.70;99.90;;;;;;1926271;74;21086;-84
2023/09/30 00:20:57;;;;;;;7.45;4.62;;;22.70;99.90;;;;;;1926099;74;21062;-84
2023/09/30 00:23:49;;;;;;;8.73;4.78;;;22.70;99.90;;;;;;1908334;74;21085;-83
2023/09/30 00:26:40;;;;;;;9.18;4.70;;;22.70;99.90;;;;;;1907968;75;21129;-84
2023/09/30 00:29:31;;;;;;;10.25;4.85;;;22.70;99.90;;;;;;1907988;75;21062;-83
2023/09/30 00:32:23;;;;;;;8.90;5.00;;;22.80;99.90;;;;;;1907793;75;21102;-84
2023/09/30 00:35:16;;;;;;;9.38;4.97;;;22.80;99.90;;;;;;1908136;75;21098;-91
2023/09/30 00:38:08;;;;;;;9.85;4.58;;;22.70;99.90;;;;;;1852036;77;21068;-82
2023/09/30 00:40:59;;;;;;;8.85;5.00;;;22.60;99.90;;;;;;1851560;77;21096;-82
2023/09/30 00:43:51;;;;;;;8.20;4.75;;;22.60;99.90;;;;;;1852104;77;21143;-84
2023/09/30 00:46:43;;;;;;;8.85;4.47;;;22.50;99.90;;;;;;1851971;77;21148;-82
2023/09/30 00:49:35;;;;;;;9.00;4.90;;;22.40;99.90;;;;;;1852024;77;21143;-83
2023/09/30 00:52:26;;;;;;;8.88;4.25;;;22.40;99.90;;;;;;1852329;77;21096;-83
2023/09/30 00:55:20;;;;;;;8.73;4.10;;;22.40;99.90;;;;;;1852133;77;21164;-84
2023/09/30 00:58:12;;;;;;;9.68;4.75;;;22.40;99.90;;;;;;1852327;77;21155;-88
2023/09/30 01:01:04;;;;;;;10.43;5.45;;;22.30;99.90;;;;;;1852182;77;21127;-84
2023/09/30 01:03:55;;;;;;;9.43;4.33;;;22.30;99.90;;;;;;1852234;77;21120;-82
2023/09/30 01:06:48;;;;;;;9.80;4.97;;;22.30;99.90;;;;;;1852269;77;21092;-83
2023/09/30 01:09:39;;;;;;;12.15;5.83;;;22.20;99.90;;;;;;1852009;77;21123;-83
2023/09/30 01:12:32;;;;;;;10.45;5.03;;;22.10;99.90;;;;;;1852146;77;21127;-82
2023/09/30 01:15:23;;;;;;;8.58;4.67;;;22.00;99.90;;;;;;1852151;77;21579;-83
2023/09/30 01:18:15;;;;;;;9.88;4.55;;;22.10;99.90;;;;;;1852370;77;21177;-83
2023/09/30 01:21:08;;;;;;;9.28;5.17;;;22.10;99.90;;;;;;1852231;77;21126;-82
2023/09/30 01:24:00;;;;;;;9.18;5.00;;;22.00;99.90;;;;;;1852126;77;21183;-83
2023/09/30 01:26:51;;;;;;;10.78;5.25;;;21.90;99.90;;;;;;1851853;77;21133;-82
2023/09/30 01:29:42;;;;;;;9.13;5.33;;;21.80;99.90;;;;;;1851965;77;21057;-84
2023/09/30 01:32:36;;;;;;;9.73;5.30;;;21.90;99.90;;;;;;1852222;77;21567;-84
2023/09/30 01:35:28;;;;;;;10.20;5.33;;;21.80;99.90;;;;;;1852360;77;21114;-83
2023/09/30 01:38:19;;;;;;;11.78;5.33;;;21.90;99.90;;;;;;1883012;75;21256;-84
2023/09/30 01:41:11;;;;;;;10.95;4.85;;;21.90;99.90;;;;;;1889546;76;21098;-83
2023/09/30 01:44:03;;;;;;;9.73;5.30;;;21.90;99.90;;;;;;1889789;76;21115;-83
2023/09/30 01:46:54;;;;;;;12.82;5.40;;;21.80;99.90;;;;;;1889342;76;21171;-84
2023/09/30 01:49:46;;;;;;;9.23;4.55;;;21.80;99.90;;;;;;1889375;76;21175;-86
2023/09/30 01:52:38;;;;;;;8.83;4.10;;;21.80;99.90;;;;;;1901548;75;21167;-83
2023/09/30 01:55:33;;;;;;;9.70;4.83;;;21.80;99.90;;;;;;1901617;75;21570;-83
2023/09/30 01:58:25;;;;;;;9.73;5.08;;;21.80;99.90;;;;;;1901728;75;21240;-83
2023/09/30 02:01:17;;;;;;;9.35;4.95;;;21.80;99.90;;;;;;1889528;76;21050;-84
2023/09/30 02:04:09;;;;;;;10.23;5.12;;;21.60;99.90;;;;;;1889499;76;21549;-83
2023/09/30 02:07:00;;;;;;;12.95;5.30;;;21.60;99.90;;;;;;1889662;76;21142;-83
2023/09/30 02:09:52;;;;;;;10.95;5.58;;;21.60;99.90;;;;;;1901645;75;21066;-85
2023/09/30 02:12:43;;;;;;;9.68;4.67;;;21.60;99.90;;;;;;1901794;75;21085;-84
2023/09/30 02:15:35;;;;;;;14.60;5.40;;;21.60;99.90;;;;;;1901679;75;21165;-85
2023/09/30 02:18:27;;;;;;;10.93;4.92;;;21.70;99.90;;;;;;1901556;75;21070;-83
2023/09/30 02:21:18;;;;;;;11.12;5.30;;;21.70;99.90;;;;;;1901542;75;21192;-83
2023/09/30 02:24:10;;;;;;;8.68;4.70;;;21.70;99.90;;;;;;1889466;76;21089;-83
2023/09/30 02:27:03;;;;;;;9.65;5.40;;;21.70;99.90;;;;;;1901685;75;21146;-83
2023/09/30 02:29:54;;;;;;;8.08;4.40;;;21.70;99.90;;;;;;1901815;75;21093;-84
2023/09/30 02:32:46;;;;;;;8.15;4.78;;;21.60;99.90;;;;;;1901799;75;21142;-83
2023/09/30 02:35:39;;;;;;;9.05;5.08;;;21.50;99.90;;;;;;1901612;75;21142;-83
2023/09/30 02:38:30;;;;;;;6.95;4.05;;;21.30;99.90;;;;;;1901828;75;21188;-83
2023/09/30 02:41:23;;;;;;;5.72;3.50;;;21.20;99.90;;;;;;1889614;76;21129;-83
2023/09/30 02:44:14;;;;;;;6.03;3.08;;;21.10;99.90;;;;;;1902034;75;21599;-83
2023/09/30 02:47:06;;;;;;;5.35;3.40;;;21.00;99.90;;;;;;1901879;75;21097;-83
2023/09/30 02:49:59;;;;;;;7.10;3.40;;;21.00;99.90;;;;;;1889510;76;21127;-83
2023/09/30 02:52:51;;;;;;;4.28;2.87;;;20.80;99.90;;;;;;1889625;76;21195;-83
2023/09/30 02:55:43;;;;;;;5.67;3.17;;;20.80;99.90;;;;;;1889333;76;21437;-83
2023/09/30 02:58:34;;;;;;;4.85;3.10;;;20.70;99.90;;;;;;1889703;76;21114;-83
2023/09/30 03:01:27;;;;;;;5.12;2.52;;;20.70;99.90;;;;;;1889446;76;21175;-83
2023/09/30 03:04:19;;;;;;;4.67;3.02;;;20.60;99.90;;;;;;1889424;76;21175;-83
2023/09/30 03:07:11;;;;;;;4.62;2.87;;;20.60;99.90;;;;;;1889472;76;21112;-83
2023/09/30 03:10:04;;;;;;;6.72;3.35;;;20.50;99.90;;;;;;1901322;75;21166;-83
2023/09/30 03:13:01;;;;;;;6.33;3.00;;;20.40;99.90;;;;;;1901533;75;21105;-83
2023/09/30 03:15:50;;;;;;;5.78;3.40;;;20.30;99.90;;;;;;1901650;75;21089;-83
2023/09/30 03:18:44;;;;;;;5.53;3.00;;;20.40;99.90;;;;;;1901582;75;21136;-83
2023/09/30 03:21:35;;;;;;;8.25;4.05;;;20.30;99.90;;;;;;1901630;75;21093;-83
2023/09/30 03:24:27;;;;;;;6.47;3.50;;;20.20;99.90;;;;;;1901541;75;21050;-82
2023/09/30 03:27:18;;;;;;;7.33;3.17;;;20.20;99.90;;;;;;1901601;75;21122;-83
2023/09/30 03:30:13;;;;;;;8.08;3.95;;;20.10;99.90;;;;;;1901860;75;21630;-83
2023/09/30 03:33:05;;;;;;;6.08;3.72;;;20.10;99.90;;;;;;1888301;76;21139;-83
2023/09/30 03:35:58;;;;;;;7.87;3.75;;;20.10;99.90;;;;;;1871731;77;21055;-83
2023/09/30 03:38:50;;;;;;;7.15;3.55;;;20.10;99.90;;;;;;1883531;74;21122;-83
2023/09/30 03:41:41;;;;;;;4.87;2.95;;;20.10;99.90;;;;;;1883504;76;21149;-83
2023/09/30 03:44:33;;;;;;;4.83;2.90;;;20.10;99.90;;;;;;1883524;76;21051;-83
2023/09/30 03:47:24;;;;;;;5.22;3.00;;;20.00;99.90;;;;;;1883626;76;21101;-83
2023/09/30 03:50:16;;;;;;;5.50;3.00;;;20.00;99.90;;;;;;1883389;76;21148;-83
2023/09/30 03:53:08;;;;;;;7.20;3.27;;;19.90;99.90;;;;;;1882944;76;21103;-83
2023/09/30 03:55:59;;;;;;;4.70;2.80;;;19.80;99.90;;;;;;1883620;76;21221;-83
2023/09/30 03:58:51;;;;;;;4.60;2.75;;;19.80;99.90;;;;;;1883629;76;21107;-83
2023/09/30 04:01:44;;;;;;;4.70;2.95;;;19.70;99.90;;;;;;1883670;76;21055;-83
2023/09/30 04:04:36;;;;;;;6.12;2.52;;;19.60;99.90;;;;;;1883704;76;21167;-83
2023/09/30 04:07:28;;;;;;;4.45;2.87;;;19.60;99.90;;;;;;1883972;76;21466;-83
2023/09/30 04:10:22;;;;;;;4.28;2.83;;;19.60;99.90;;;;;;1883557;76;21222;-83
2023/09/30 04:13:13;;;;;;;4.60;2.85;;;19.50;99.90;;;;;;1883805;76;21125;-83
2023/09/30 04:16:04;;;;;;;6.75;3.12;;;19.30;99.90;;;;;;1883710;76;21176;-83
2023/09/30 04:18:56;;;;;;;6.17;3.25;;;19.20;99.90;;;;;;1883854;76;21110;-83
2023/09/30 04:21:47;;;;;;;5.33;3.08;;;19.20;99.90;;;;;;1883678;76;21135;-82
2023/09/30 04:24:39;;;;;;;5.00;3.12;;;19.20;99.90;;;;;;1883545;76;21118;-83
2023/09/30 04:27:30;;;;;;;5.33;3.20;;;19.20;99.90;;;;;;1883640;76;21163;-83
2023/09/30 04:30:22;;;;;;;5.80;3.22;;;19.20;99.90;;;;;;1883116;76;21063;-83
2023/09/30 04:33:14;;;;;;;5.78;2.87;;;19.30;99.90;;;;;;1888065;75;21177;-83
2023/09/30 04:36:08;;;;;;;5.37;3.35;;;19.20;99.90;;;;;;1916073;75;21099;-83
2023/09/30 04:39:00;;;;;;;5.17;3.25;;;19.20;99.90;;;;;;1916278;75;21160;-83
2023/09/30 04:41:52;;;;;;;4.58;3.17;;;19.20;99.90;;;;;;1916446;75;21547;-83
2023/09/30 04:44:43;;;;;;;5.30;2.95;;;19.20;99.90;;;;;;1916714;75;21170;-83
2023/09/30 04:47:35;;;;;;;5.10;2.85;;;19.20;99.90;;;;;;1916427;75;21146;-83
2023/09/30 04:50:26;;;;;;;6.28;3.30;;;19.20;99.90;;;;;;1916140;75;21111;-83
2023/09/30 04:53:18;;;;;;;5.95;2.95;;;19.30;99.90;;;;;;1916559;75;21063;-83
2023/09/30 04:56:09;;;;;;;4.92;3.30;;;19.30;99.90;;;;;;1916404;75;21538;-83
2023/09/30 04:59:02;;;;;;;5.97;3.35;;;19.30;99.90;;;;;;1916601;75;21090;-83
2023/09/30 05:01:54;;;;;;;5.85;3.30;;;19.30;99.90;;;;;;1916418;75;21063;-83
2023/09/30 05:04:45;;;;;;;4.78;2.62;;;19.30;99.90;;;;;;1916625;75;21161;-83
2023/09/30 05:07:36;;;;;;;4.95;2.72;;;19.30;99.90;;;;;;1916585;75;21118;-83
2023/09/30 05:10:28;;;;;;;5.78;3.90;;;19.30;99.90;;;;;;1916517;75;21087;-83
2023/09/30 05:13:23;;;;;;;5.20;3.17;;;19.30;99.90;;;;;;1916555;75;21131;-83
2023/09/30 05:16:15;;;;;;;6.10;3.35;;;19.30;99.90;;;;;;1916647;75;21098;-83
2023/09/30 05:19:06;;;;;;;6.55;3.22;;;19.30;99.90;;;;;;1916739;75;21157;-84
2023/09/30 05:21:58;;;;;;;6.42;3.42;;;19.20;99.90;;;;;;1916378;75;21106;-83
2023/09/30 05:24:49;;;;;;;12.53;3.95;;;19.20;99.90;;;;;;1916055;75;21099;-83
2023/09/30 05:27:42;;;;;;;6.47;2.92;;;19.20;99.90;;;;;;1915934;75;21099;-83
2023/09/30 05:30:33;;;;;;;6.28;3.75;;;19.20;99.90;;;;;;1916214;75;21075;-83
2023/09/30 05:33:25;;;;;;;6.15;3.77;;;19.20;99.90;;;;;;1915924;75;21160;-83
2023/09/30 05:36:17;;;;;;;6.22;3.58;;;19.20;99.90;;;;;;1916294;75;21102;-83
2023/09/30 05:39:10;;;;;;;6.78;3.25;;;19.20;99.90;;;;;;1916166;75;21567;-83
2023/09/30 05:42:01;;;;;;;6.42;3.80;;;19.10;99.90;;;;;;1916199;74;21130;-83
2023/09/30 05:44:53;;;;;;;5.55;3.12;;;19.00;99.90;;;;;;1916296;75;21055;-83
2023/09/30 05:47:45;;;;;;;8.03;3.40;;;18.90;99.90;;;;;;1916290;75;21099;-83
2023/09/30 05:50:38;;;;;;;5.08;3.37;;;18.90;99.90;;;;;;1916313;75;21123;-83
2023/09/30 05:53:32;;;;;;;9.33;4.08;;;18.90;99.90;;;;;;1916223;75;21090;-83
2023/09/30 05:56:23;;;;;;;10.63;4.40;;;19.00;99.90;;;;;;1916602;75;21440;-83
2023/09/30 05:59:14;;;;;;;8.68;4.15;;;18.90;99.90;;;;;;1916323;75;21142;-83
2023/09/30 06:02:06;;;;;;;9.98;3.95;;;19.00;99.90;;;;;;1916159;75;21082;-83
2023/09/30 06:04:58;;;;;;;7.08;3.85;;;19.10;99.90;;;;;;1916174;75;21079;-83
2023/09/30 06:07:49;;;;;;;7.47;3.42;;;19.20;99.90;;;;;;1916382;75;21094;-83
2023/09/30 06:10:43;;;;;;;7.40;3.70;;;19.20;99.90;;;;;;1916053;75;21543;-83
2023/09/30 06:13:35;;;;;;;6.72;3.50;;;19.30;99.90;;;;;;1916263;75;21211;-83
2023/09/30 06:16:27;;;;;;;6.12;3.75;;;19.30;99.90;;;;;;1916258;75;21133;-83
2023/09/30 06:19:21;;;;;;;7.10;3.75;;;19.40;99.90;;;;;;1916181;75;21098;-83
2023/09/30 06:22:12;;;;;;;5.97;3.37;;;19.40;99.90;;;;;;1916086;75;21550;-83
2023/09/30 06:25:05;;;;;;;7.28;3.80;;;19.50;99.90;;;;;;1916123;75;21197;-83
2023/09/30 06:27:56;;;;;;;7.00;3.35;;;19.60;99.90;;;;;;1916183;75;21108;-83
2023/09/30 06:30:50;;;;;;;6.05;3.92;;;19.60;99.90;;;;;;1915875;75;21110;-82
2023/09/30 06:33:41;;;;;;;6.15;3.33;;;19.60;99.90;;;;;;1916148;75;21123;-83
2023/09/30 06:36:34;;;;;;;6.25;3.40;;;19.70;99.90;;;;;;1916297;75;21055;-84
2023/09/30 06:39:25;;;;;;;6.53;3.58;;;19.80;99.90;;;;;;1916210;75;21094;-83
2023/09/30 06:42:16;;;;;;;8.83;3.37;;;19.70;99.90;;;;;;1923644;74;21580;-83
2023/09/30 06:45:10;;;;;;;5.30;3.45;;;19.80;99.90;;;;;;1932174;74;21098;-83
2023/09/30 06:48:02;;;;;;;6.37;3.77;;;19.80;99.90;;;;;;1932186;74;21126;-83
2023/09/30 06:50:54;;;;;;;9.08;3.80;;;19.80;99.90;;;;;;1932078;74;21137;-83
2023/09/30 06:53:46;;;;;;;6.25;3.75;;;19.70;99.90;;;;;;1932120;74;21113;-83
2023/09/30 06:56:37;;;;;;;7.67;3.70;;;19.80;99.90;;;;;;1932426;74;21146;-83
2023/09/30 06:59:29;;;;;;;6.20;3.52;;;19.90;99.90;;;;;;1932409;74;21127;-83
2023/09/30 07:02:21;;;;;;;6.08;3.87;;;20.00;99.90;;;;;;1931948;74;21403;-83
2023/09/30 07:05:18;;;;;;;6.25;3.60;;;19.90;99.90;;;;;;1931784;74;21134;-83
2023/09/30 07:08:10;;;;;;;5.35;3.60;;;20.00;99.90;;;;;;1932178;74;21442;-83
2023/09/30 07:11:01;;;;;;;6.03;3.58;;;20.10;99.90;;;;;;1932041;74;21086;-83
2023/09/30 07:13:53;;;;;;;6.28;3.60;;;20.10;99.90;;;;;;1932269;74;21131;-83
2023/09/30 07:16:44;;;;;;;6.90;3.60;;;20.20;99.90;;;;;;1932237;74;21083;-82
2023/09/30 07:19:37;;;;;;;6.17;3.65;;;20.10;99.90;;;;;;1932011;74;21177;-83
2023/09/30 07:22:28;;;;;;;6.83;3.58;;;20.10;99.90;;;;;;1932390;74;21190;-83
2023/09/30 07:25:21;;;;;;;8.10;3.90;;;19.90;99.90;;;;;;1932239;74;21169;-84
2023/09/30 07:28:13;;;;;;;6.08;3.52;;;19.90;99.90;;;;;;1932253;74;21101;-83
2023/09/30 07:31:04;;;;;;;6.62;3.92;;;20.10;99.90;;;;;;1932191;74;21102;-83
2023/09/30 07:33:56;;;;;;;8.60;3.98;;;20.20;99.90;;;;;;1932167;74;21106;-83
2023/09/30 07:36:48;;;;;;;7.35;4.12;;;20.20;99.90;;;;;;1932106;74;21164;-83
2023/09/30 07:39:40;;;;;;;8.53;4.03;;;20.20;99.90;;;;;;1932242;74;21094;-84
2023/09/30 07:42:34;;;;;;;7.58;3.72;;;20.20;99.90;;;;;;1928953;74;21104;-83
2023/09/30 07:45:26;;;;;;;8.80;4.30;;;20.30;99.90;;;;;;1916535;75;21385;-83
2023/09/30 07:48:19;;;;;;;7.42;4.20;;;20.40;99.90;;;;;;1916111;75;21107;-83
2023/09/30 07:51:13;;;;;;;8.38;4.78;;;20.50;99.90;;;;;;1916059;75;21180;-83
2023/09/30 07:54:05;;;;;;;7.00;4.58;;;20.60;99.90;;;;;;1916473;75;21075;-83
2023/09/30 07:56:58;;;;;;;9.23;4.78;;;20.50;99.90;;;;;;1904165;75;21569;-83
2023/09/30 07:59:50;;;;;;;8.18;4.05;;;20.70;99.90;;;;;;1903906;75;21107;-83
2023/09/30 08:02:41;;;;;;;9.15;4.78;;;20.80;99.90;;;;;;1903720;75;21505;-83
2023/09/30 08:05:33;;;;;;;9.45;5.05;;;21.00;99.90;;;;;;1903587;75;21120;-83
2023/09/30 08:08:24;;;;;;;11.03;5.90;;;21.10;99.90;;;;;;1903545;75;21076;-83
2023/09/30 08:11:18;;;;;;;7.55;4.17;;;21.20;99.90;;;;;;1903525;75;21107;-83
2023/09/30 08:14:09;;;;;;;10.45;4.55;;;21.20;99.90;;;;;;1903791;75;21086;-83
2023/09/30 08:17:02;;;;;;;9.10;4.33;;;21.30;99.90;;;;;;1903813;75;21111;-83
2023/09/30 08:19:53;;;;;;;8.55;4.50;;;21.20;99.90;;;;;;1903763;75;21051;-83
2023/09/30 08:22:45;;;;;;;8.20;4.17;;;21.20;99.90;;;;;;1903965;75;21120;-83
2023/09/30 08:25:37;;;;;;;8.33;4.80;;;21.20;99.90;;;;;;1903366;75;21136;-83
2023/09/30 08:28:28;;;;;;;8.75;4.83;;;21.30;99.90;;;;;;1903157;75;21134;-83
2023/09/30 08:31:21;;;;;;;12.13;5.65;;;21.30;99.90;;;;;;1903932;75;21098;-83
2023/09/30 08:34:14;;;;;;;11.68;6.03;;;21.30;99.90;;;;;;1903979;75;21092;-83
2023/09/30 08:37:05;;;;;;;10.93;5.67;;;21.40;99.90;;;;;;1903968;75;21119;-83
2023/09/30 08:39:57;;;;;;;11.33;5.72;;;21.50;99.90;;;;;;1903766;75;21119;-83
2023/09/30 08:42:51;;;;;;;12.58;6.47;;;21.50;99.90;;;;;;1903653;75;21052;-83
2023/09/30 08:48:27;;;;;;;11.28;6.10;;;21.60;99.90;;;;;;1957447;72;22162;-83
2023/09/30 08:51:18;;;;;;;12.53;6.20;;;21.50;99.90;;;;;;1916920;75;21080;-83
2023/09/30 08:54:09;;;;;;;12.40;6.67;;;21.50;99.90;;;;;;1916835;75;21095;-83
2023/09/30 08:57:04;;;;;;;13.08;5.80;;;21.50;99.90;;;;;;1917190;75;21169;-83
2023/09/30 08:59:56;;;;;;;9.93;5.50;;;21.60;99.90;;;;;;1917246;75;21152;-83
2023/09/30 09:02:48;;;;;;;9.28;5.65;;;21.60;99.90;;;;;;1879966;76;21123;-83
2023/09/30 09:05:40;;;;;;;9.45;5.30;;;21.60;99.90;;;;;;1916878;75;21095;-83
2023/09/30 09:08:32;;;;;;;9.78;4.83;;;21.60;99.90;;;;;;1879976;76;21136;-83
2023/09/30 09:11:26;;;;;;;9.95;5.30;;;21.60;99.90;;;;;;1916933;75;21117;-83
2023/09/30 09:14:17;;;;;;;11.22;5.15;;;21.50;99.90;;;;;;1880055;76;21055;-83
2023/09/30 09:17:11;;;;;;;10.05;5.78;;;21.40;99.90;;;;;;1917194;75;21086;-83
2023/09/30 09:20:04;;;;;;;9.98;4.58;;;21.40;99.90;;;;;;1916611;75;21051;-83
2023/09/30 09:23:00;;;;;;;11.50;4.50;;;21.50;99.90;;;;;;1879882;76;21092;-84
2023/09/30 09:28:38;;;;;;;12.68;5.97;;;21.50;99.90;;;;;;1957592;72;22138;-83
2023/09/30 09:31:30;;;;;;;12.20;5.33;;;21.60;99.90;;;;;;1916761;75;21071;-83
2023/09/30 09:34:22;;;;;;;9.55;5.25;;;21.60;99.90;;;;;;1916900;75;21098;-83
2023/09/30 09:37:17;;;;;;;7.30;4.95;;;21.70;99.90;;;;;;1880175;76;21086;-83
2023/09/30 09:40:13;;;;;;;7.62;4.67;;;21.80;99.90;;;;;;1916680;75;21112;-83
2023/09/30 09:43:05;;;;;;;9.48;4.37;;;21.90;99.90;;;;;;1879995;76;21117;-83
2023/09/30 09:46:03;;;;;;;8.63;4.47;;;22.00;99.90;;;;;;1916761;75;21114;-83
2023/09/30 09:48:51;;;;;;;8.15;4.33;;;22.00;99.90;;;;;;1879808;76;21495;-83
2023/09/30 09:51:45;;;;;;;7.78;4.85;;;22.10;99.90;;;;;;1916753;75;21643;-83
2023/09/30 09:54:37;;;;;;;7.83;4.47;;;22.20;99.90;;;;;;1879718;76;21164;-84
2023/09/30 09:57:31;;;;;;;11.95;5.10;;;22.30;99.90;;;;;;1916378;75;21129;-83
2023/09/30 10:00:25;;;;;;;9.50;4.17;;;22.40;99.90;;;;;;1916442;75;21151;-83
2023/09/30 10:03:17;;;;;;;8.63;3.92;;;22.40;99.90;;;;;;1879716;76;21090;-83
2023/09/30 10:06:09;;;;;;;9.23;4.62;;;22.50;99.90;;;;;;1916584;75;21052;-83
2023/09/30 10:09:02;;;;;;;8.00;4.25;;;22.70;99.90;;;;;;1916762;75;21093;-84
2023/09/30 10:12:00;;;;;;;8.58;4.17;;;22.80;99.90;;;;;;1880006;76;21157;-83
2023/09/30 10:14:53;;;;;;;7.28;4.08;;;22.80;99.90;;;;;;1916443;75;21116;-83
2023/09/30 10:18:06;;;;;;;8.75;4.20;;;22.90;99.90;;;;;;1879297;76;21109;-83
2023/09/30 10:21:03;;;;;;;7.50;4.00;;;23.00;99.90;;;;;;1916592;75;21135;-83
2023/09/30 10:24:03;;;;;;;8.35;4.20;;;23.10;99.90;;;;;;1916841;75;21094;-83
2023/09/30 10:27:32;;;;;;;7.90;4.22;;;23.20;99.90;;;;;;1879715;76;21117;-83
2023/09/30 10:30:24;;;;;;;7.95;4.28;;;23.20;99.90;;;;;;1916850;75;21104;-83
2023/09/30 10:33:16;;;;;;;8.23;3.52;;;23.20;99.90;;;;;;1916856;75;21102;-83
2023/09/30 10:36:10;;;;;;;8.95;4.33;;;23.20;99.90;;;;;;1879801;76;21133;-84
2023/09/30 10:39:03;;;;;;;7.78;4.03;;;23.20;99.90;;;;;;1916475;75;21247;-83
2023/09/30 10:41:55;;;;;;;6.00;2.85;;;23.30;99.90;;;;;;1879656;76;21149;-83
2023/09/30 10:44:46;;;;;;;6.20;3.50;;;23.20;99.90;;;;;;1916195;75;21530;-84
2023/09/30 10:47:38;;;;;;;6.20;3.05;;;23.30;99.90;;;;;;1879707;76;21132;-84
2023/09/30 10:50:51;;;;;;;4.80;2.67;;;23.20;99.90;;;;;;1916187;75;21331;-83
2023/09/30 10:53:48;;;;;;;5.42;3.25;;;23.20;99.90;;;;;;1879175;76;21081;-83
2023/09/30 10:56:39;;;;;;;5.25;2.90;;;23.40;99.90;;;;;;1916344;75;21125;-83
2023/09/30 10:59:34;;;;;;;5.60;2.20;;;23.40;99.90;;;;;;1916324;75;21143;-83
2023/09/30 11:02:25;;;;;;;4.58;2.25;;;23.60;99.90;;;;;;1916418;75;21087;-82
2023/09/30 11:05:18;;;;;;;5.50;2.70;;;23.70;99.90;;;;;;1879361;76;21113;-83
2023/09/30 11:08:10;;;;;;;5.92;3.20;;;23.70;99.90;;;;;;1916206;75;21542;-82
2023/09/30 11:11:02;;;;;;;7.03;3.27;;;23.80;99.90;;;;;;1879314;76;21188;-82
2023/09/30 11:13:54;;;;;;;6.00;3.55;;;23.80;99.90;;;;;;1916053;75;21135;-83
2023/09/30 11:16:48;;;;;;;5.62;3.10;;;24.00;99.90;;;;;;1916356;75;21118;-83
2023/09/30 11:19:48;;;;;;;5.92;2.62;;;24.00;99.90;;;;;;1879401;76;21137;-83
2023/09/30 11:22:40;;;;;;;4.90;2.40;;;24.10;99.90;;;;;;1936625;73;21175;-83
2023/09/30 11:25:37;;;;;;;4.05;1.98;;;24.10;99.90;;;;;;1956535;73;21187;-83
2023/09/30 11:28:37;;;;;;;4.70;2.22;;;24.10;99.90;;;;;;1955348;73;21559;-83
2023/09/30 11:31:33;;;;;;;5.80;2.40;;;24.00;99.90;;;;;;1951109;73;21050;-84
2023/09/30 11:34:33;;;;;;;6.12;2.40;;;24.00;99.90;;;;;;1927144;73;21047;-83
2023/09/30 11:37:24;;;;;;;4.10;2.30;;;24.00;99.90;;;;;;1912117;75;21107;-83
2023/09/30 11:40:20;;;;;;;4.67;2.25;;;24.00;99.90;;;;;;1911964;75;21607;-83
2023/09/30 11:43:11;;;;;;;4.58;2.10;;;24.10;99.90;;;;;;1915238;75;21527;-83
2023/09/30 11:46:08;;;;;;;3.75;2.15;;;24.20;99.90;;;;;;1915452;75;21063;-85
2023/09/30 11:49:08;;;;;;;4.28;2.10;;;24.30;99.90;;;;;;1915178;75;21109;-84
2023/09/30 11:52:00;;;;;;;3.60;1.80;;;24.40;99.90;;;;;;1915012;75;21059;-83
2023/09/30 11:54:56;;;;;;;4.72;2.50;;;24.50;99.90;;;;;;1915095;75;21158;-84
2023/09/30 11:57:47;;;;;;;4.28;2.00;;;24.50;99.90;;;;;;1915453;75;21102;-83
2023/09/30 12:00:42;;;;;;;4.45;2.10;;;24.40;99.90;;;;;;1915294;75;21063;-83
2023/09/30 12:03:39;;;;;;;5.53;2.45;;;24.30;99.90;;;;;;1915199;75;21054;-83
2023/09/30 12:06:28;;;;;;;4.97;2.33;;;24.30;99.90;;;;;;1915221;75;21148;-85
2023/09/30 12:09:23;;;;;;;3.85;2.20;;;24.40;99.90;;;;;;1915278;75;21104;-83
2023/09/30 12:12:16;;;;;;;5.90;2.80;;;24.30;99.90;;;;;;1915400;75;21106;-84
2023/09/30 12:15:10;;;;;;;4.85;2.37;;;24.20;99.90;;;;;;1915154;75;21107;-84
2023/09/30 12:18:01;;;;;;;5.45;2.50;;;24.20;99.90;;;;;;1915021;75;21242;-83
2023/09/30 12:20:54;;;;;;;5.37;2.50;;;24.30;99.90;;;;;;1915328;75;21104;-83
2023/09/30 12:23:45;;;;;;;4.90;2.58;;;24.30;99.90;;;;;;1915345;75;21098;-84
2023/09/30 12:26:38;;;;;;;5.33;2.33;;;24.30;99.90;;;;;;1915364;75;21562;-83
2023/09/30 12:29:29;;;;;;;5.12;2.83;;;24.40;99.90;;;;;;1914861;75;21116;-83
2023/09/30 12:32:22;;;;;;;4.45;2.40;;;24.40;99.90;;;;;;1914302;75;21252;-83
2023/09/30 12:35:14;;;;;;;4.97;2.65;;;24.30;99.90;;;;;;1914605;75;21075;-84
2023/09/30 12:38:06;;;;;;;5.30;2.70;;;24.40;99.90;;;;;;1914113;75;21185;-84
2023/09/30 12:40:58;;;;;;;5.00;2.35;;;24.50;99.90;;;;;;1914302;75;21086;-85
2023/09/30 12:43:49;;;;;;;4.58;2.50;;;24.50;99.90;;;;;;1914543;75;21071;-86
2023/09/30 12:46:40;;;;;;;5.53;2.60;;;24.50;99.90;;;;;;1914389;75;21196;-83
2023/09/30 12:49:32;;;;;;;5.78;2.60;;;24.50;99.90;;;;;;1914277;75;21113;-83
2023/09/30 12:52:24;;;;;;;5.28;2.87;;;24.50;99.90;;;;;;1901955;75;21083;-85
2023/09/30 12:55:15;;;;;;;4.53;2.60;;;24.50;99.90;;;;;;1902183;75;21674;-85
2023/09/30 12:58:08;;;;;;;5.03;2.95;;;24.50;99.90;;;;;;1901997;75;21150;-84
2023/09/30 13:00:59;;;;;;;7.70;2.92;;;24.60;99.90;;;;;;1902221;75;21062;-84
2023/09/30 13:03:52;;;;;;;5.08;2.50;;;24.60;99.90;;;;;;1902175;75;21126;-83
2023/09/30 13:06:44;;;;;;;5.12;2.20;;;24.70;99.90;;;;;;1902021;75;21126;-83
2023/09/30 13:09:38;;;;;;;6.03;2.75;;;24.80;99.90;;;;;;1901490;75;21534;-84
2023/09/30 13:12:29;;;;;;;6.33;3.50;;;24.80;99.90;;;;;;1902048;75;21269;-84
2023/09/30 13:15:24;;;;;;;5.85;2.85;;;24.80;99.90;;;;;;1901988;75;21176;-84
2023/09/30 13:18:16;;;;;;;5.72;2.87;;;24.80;99.90;;;;;;1914513;75;21118;-83
2023/09/30 13:21:08;;;;;;;4.90;3.08;;;24.70;99.90;;;;;;1914422;75;21167;-83
2023/09/30 13:24:00;;;;;;;5.40;2.52;;;24.70;99.90;;;;;;1914394;75;21075;-84
2023/09/30 13:26:53;;;;;;;5.40;2.70;;;24.70;99.90;;;;;;1914088;75;21114;-84
2023/09/30 13:29:45;;;;;;;5.28;2.98;;;24.70;99.90;;;;;;1913445;75;21091;-83
2023/09/30 13:32:36;;;;;;;4.65;2.70;;;24.80;99.90;;;;;;1901823;75;21087;-84
2023/09/30 13:35:28;;;;;;;6.05;3.05;;;24.70;99.90;;;;;;1871414;77;21126;-83
2023/09/30 13:38:24;;;;;;;4.90;2.83;;;24.70;99.90;;;;;;1836044;78;21207;-83
2023/09/30 13:41:21;;;;;;;4.60;2.22;;;24.70;99.90;;;;;;1823806;79;21122;-83
2023/09/30 13:44:18;;;;;;;7.22;2.90;;;24.70;99.90;;;;;;1823452;79;21523;-87
2023/09/30 13:47:15;;;;;;;5.37;2.52;;;24.60;99.90;;;;;;1823718;79;21118;-83
2023/09/30 13:50:12;;;;;;;6.70;3.25;;;24.80;99.90;;;;;;1823588;79;21083;-84
2023/09/30 13:53:07;;;;;;;4.78;2.58;;;24.80;99.90;;;;;;1823507;79;21196;-84
2023/09/30 13:56:04;;;;;;;6.60;2.95;;;24.90;99.90;;;;;;1823680;79;21127;-83
2023/09/30 13:58:59;;;;;;;5.43;3.07;;;24.80;99.90;;;;;;1824097;79;21115;-83
2023/09/30 14:01:54;;;;;;;5.80;3.33;;;24.80;99.90;;;;;;1823728;79;21822;-83
2023/09/30 14:04:48;;;;;;;7.95;3.33;;;24.80;99.90;;;;;;1823914;79;21143;-83
2023/09/30 14:07:40;;;;;;;6.00;3.22;;;24.90;99.90;;;;;;1823758;79;21146;-86
2023/09/30 14:10:34;;;;;;;3.60;2.27;;;25.20;99.90;;;;;;1823709;79;21119;-83
2023/09/30 14:13:28;;;;;;;6.62;3.47;;;25.50;99.90;;;;;;1823863;79;21130;-83
2023/09/30 14:16:23;;;;;;;6.28;3.00;;;25.80;99.90;;;;;;1823856;79;21147;-83
2023/09/30 14:19:18;;;;;;;5.22;2.65;;;26.10;99.90;;;;;;1823697;79;21355;-83
2023/09/30 14:22:11;;;;;;;6.42;2.98;;;26.20;99.90;;;;;;1823526;79;21151;-83
2023/09/30 14:25:08;;;;;;;5.22;2.90;;;26.00;99.90;;;;;;1823678;79;21548;-84
2023/09/30 14:28:01;;;;;;;5.03;3.35;;;25.90;99.90;;;;;;1824121;79;21574;-83
2023/09/30 14:30:56;;;;;;;5.15;2.90;;;26.10;99.90;;;;;;1824073;78;21123;-83
2023/09/30 14:33:50;;;;;;;6.42;3.42;;;26.40;99.90;;;;;;1896001;75;21185;-86
2023/09/30 14:36:52;;;;;;;4.78;2.35;;;26.60;99.90;;;;;;1916468;75;21132;-82
2023/09/30 14:39:47;;;;;;;8.20;3.80;;;26.50;99.90;;;;;;1915918;75;21054;-89
2023/09/30 14:42:42;;;;;;;6.72;3.58;;;25.90;99.90;;;;;;1916425;75;21109;-84
2023/09/30 14:45:36;;;;;;;6.33;2.83;;;25.40;99.90;;;;;;1897511;75;21102;-82
2023/09/30 14:48:30;;;;;;;5.33;3.05;;;25.30;99.90;;;;;;1916335;75;21107;-82
2023/09/30 14:51:26;;;;;;;5.62;2.60;;;25.10;99.90;;;;;;1916066;75;21098;-82
2023/09/30 14:54:20;;;;;;;7.95;3.47;;;25.00;99.90;;;;;;1915864;75;21126;-87
2023/09/30 14:57:13;;;;;;;7.08;3.25;;;25.20;99.90;;;;;;1916294;75;21230;-86
2023/09/30 15:00:10;;;;;;;6.85;3.92;;;25.50;99.90;;;;;;1916527;75;21624;-87
2023/09/30 15:03:05;;;;;;;8.48;4.10;;;25.70;99.90;;;;;;1916699;75;21514;-83